Time;durP1;ratioP1;P1;durP2;ratioP2;P2;SDS_P1;SDS_P2;PMS_P1;PMS_P2;Temp;Humidity;BMP_temperature;BMP_pressure;BME280_temperature;BME280_humidity;BME280_pressure;Samples;Min_cycle;Max_cycle;Signal;HPM_P1;HPM_P2
2023/04/19 00:00:29;;;;;;;4.10;2.40;;;;;;;;;;5054665;28;20509;-70
2023/04/19 00:02:59;;;;;;;7.77;2.90;;;;;;;;;;5061439;28;20884;-70
2023/04/19 00:05:33;;;;;;;5.60;2.83;;;;;;;;;;5057666;28;20445;-70
2023/04/19 00:08:01;;;;;;;4.77;2.70;;;;;;;;;;5047321;28;20453;-70
2023/04/19 00:10:28;;;;;;;4.10;2.17;;;;;;;;;;5050171;28;20465;-70
2023/04/19 00:12:59;;;;;;;4.70;2.90;;;;;;;;;;5052323;28;20451;-69
2023/04/19 00:15:28;;;;;;;5.80;2.60;;;;;;;;;;5051498;28;21036;-68
2023/04/19 00:17:59;;;;;;;3.53;2.13;;;;;;;;;;5055734;28;20457;-70
2023/04/19 00:20:29;;;;;;;5.40;2.57;;;;;;;;;;5051271;28;20454;-70
2023/04/19 00:22:59;;;;;;;3.87;2.87;;;;;;;;;;5055046;28;20488;-70
2023/04/19 00:25:28;;;;;;;10.10;2.93;;;;;;;;;;5050346;28;20454;-69
2023/04/19 00:27:55;;;;;;;7.20;3.27;;;;;;;;;;5049981;28;20901;-69
2023/04/19 00:30:26;;;;;;;4.60;3.00;;;;;;;;;;5050521;28;20455;-69
2023/04/19 00:32:54;;;;;;;4.40;2.57;;;;;;;;;;5050516;28;20533;-69
2023/04/19 00:35:22;;;;;;;7.17;2.83;;;;;;;;;;5053428;28;20512;-71
2023/04/19 00:37:52;;;;;;;5.60;3.10;;;;;;;;;;5050412;28;20507;-70
2023/04/19 00:40:27;;;;;;;5.03;3.17;;;;;;;;;;5053379;28;20455;-70
2023/04/19 00:42:58;;;;;;;5.80;3.87;;;;;;;;;;5053581;28;20461;-70
2023/04/19 00:45:26;;;;;;;5.00;3.17;;;;;;;;;;5054307;28;20485;-70
2023/04/19 00:47:54;;;;;;;6.90;2.50;;;;;;;;;;5042530;28;20455;-70
2023/04/19 00:50:26;;;;;;;5.20;2.73;;;;;;;;;;5052217;28;20949;-70
2023/04/19 00:52:56;;;;;;;6.90;2.90;;;;;;;;;;5044988;28;20454;-70
2023/04/19 00:55:24;;;;;;;7.87;4.03;;;;;;;;;;5053226;28;20554;-70
2023/04/19 00:57:52;;;;;;;4.70;2.70;;;;;;;;;;5051427;28;20485;-71
2023/04/19 01:00:29;;;;;;;6.20;3.47;;;;;;;;;;5051368;28;20476;-70
2023/04/19 01:03:01;;;;;;;5.07;3.13;;;;;;;;;;5048261;28;20461;-70
2023/04/19 01:05:29;;;;;;;4.67;3.20;;;;;;;;;;5050805;28;20784;-71
2023/04/19 01:07:59;;;;;;;4.70;3.23;;;;;;;;;;5051036;28;20508;-69
2023/04/19 01:10:26;;;;;;;10.73;3.60;;;;;;;;;;5047170;28;20772;-69
2023/04/19 01:12:54;;;;;;;6.50;3.60;;;;;;;;;;5048805;28;20462;-69
2023/04/19 01:15:22;;;;;;;4.00;3.23;;;;;;;;;;5044110;28;20493;-70
2023/04/19 01:17:50;;;;;;;6.27;3.13;;;;;;;;;;5041799;28;20463;-71
2023/04/19 01:20:22;;;;;;;4.30;3.03;;;;;;;;;;5040261;28;20602;-69
2023/04/19 01:22:52;;;;;;;6.57;3.57;;;;;;;;;;5041903;28;20532;-70
2023/04/19 01:25:19;;;;;;;4.90;3.40;;;;;;;;;;5041453;28;20815;-71
2023/04/19 01:27:47;;;;;;;6.50;3.60;;;;;;;;;;5057887;28;20728;-69
2023/04/19 01:30:15;;;;;;;6.07;3.70;;;;;;;;;;5061898;28;20484;-69
2023/04/19 01:32:43;;;;;;;8.70;3.70;;;;;;;;;;5061877;28;20535;-69
2023/04/19 01:35:11;;;;;;;6.53;3.67;;;;;;;;;;5049086;28;20483;-70
2023/04/19 01:37:39;;;;;;;4.70;3.50;;;;;;;;;;5040318;28;20463;-70
2023/04/19 01:40:10;;;;;;;5.83;3.40;;;;;;;;;;5047055;28;20465;-70
2023/04/19 01:42:38;;;;;;;7.90;3.00;;;;;;;;;;5062429;28;20496;-70
2023/04/19 01:45:07;;;;;;;7.30;3.50;;;;;;;;;;5060901;28;20482;-71
2023/04/19 01:47:35;;;;;;;5.73;3.10;;;;;;;;;;5060731;28;20881;-70
2023/04/19 01:50:04;;;;;;;9.20;3.33;;;;;;;;;;5048722;28;20459;-69
2023/04/19 01:52:33;;;;;;;5.27;3.07;;;;;;;;;;5039698;28;20474;-71
2023/04/19 01:55:01;;;;;;;6.27;3.80;;;;;;;;;;5040085;28;20776;-70
2023/04/19 01:57:31;;;;;;;5.73;3.77;;;;;;;;;;5039609;28;20491;-68
2023/04/19 01:59:58;;;;;;;5.97;3.90;;;;;;;;;;5040139;28;20517;-68
2023/04/19 02:02:27;;;;;;;4.93;3.17;;;;;;;;;;5040202;28;20463;-71
2023/04/19 02:04:55;;;;;;;5.20;3.03;;;;;;;;;;5039549;28;20462;-70
2023/04/19 02:07:23;;;;;;;5.97;2.80;;;;;;;;;;5046251;28;20929;-70
2023/04/19 02:09:50;;;;;;;5.23;2.93;;;;;;;;;;5059471;28;20469;-69
2023/04/19 02:12:18;;;;;;;6.17;3.40;;;;;;;;;;5059954;28;20458;-70
2023/04/19 02:14:47;;;;;;;5.27;3.20;;;;;;;;;;5058983;28;20618;-69
2023/04/19 02:17:14;;;;;;;6.30;3.67;;;;;;;;;;5059804;28;20493;-70
2023/04/19 02:19:42;;;;;;;4.67;2.97;;;;;;;;;;5058973;28;20868;-70
2023/04/19 02:22:11;;;;;;;6.13;3.57;;;;;;;;;;5058887;28;20882;-72
2023/04/19 02:24:42;;;;;;;6.83;3.50;;;;;;;;;;5056981;28;20465;-70
2023/04/19 02:27:15;;;;;;;5.93;2.87;;;;;;;;;;5057875;28;20454;-70
2023/04/19 02:29:47;;;;;;;7.30;3.03;;;;;;;;;;5057438;28;20454;-70
2023/04/19 02:32:21;;;;;;;6.67;3.17;;;;;;;;;;5038920;28;20454;-69
2023/04/19 02:34:59;;;;;;;5.17;2.77;;;;;;;;;;5046453;28;20496;-71
2023/04/19 02:40:10;;;;;;;3.90;2.50;;;;;;;;;;5056466;28;20533;-70
2023/04/19 02:42:43;;;;;;;5.77;3.30;;;;;;;;;;5058211;28;20454;-70
2023/04/19 02:45:14;;;;;;;6.20;3.20;;;;;;;;;;5057635;28;20478;-70
2023/04/19 02:47:41;;;;;;;6.90;3.07;;;;;;;;;;5058209;28;20504;-70
2023/04/19 02:50:10;;;;;;;9.63;3.50;;;;;;;;;;5058499;28;20489;-70
2023/04/19 02:52:38;;;;;;;4.83;2.83;;;;;;;;;;5058575;28;20450;-70
2023/04/19 02:55:08;;;;;;;4.77;3.10;;;;;;;;;;5057040;28;20486;-70
2023/04/19 02:57:36;;;;;;;5.20;3.10;;;;;;;;;;5057436;28;20489;-70
2023/04/19 03:00:07;;;;;;;3.77;3.07;;;;;;;;;;5056963;28;20561;-70
2023/04/19 03:02:36;;;;;;;4.60;3.00;;;;;;;;;;5060537;28;20462;-70
2023/04/19 03:05:05;;;;;;;8.03;3.17;;;;;;;;;;5058032;28;20962;-70
2023/04/19 03:07:33;;;;;;;5.60;3.23;;;;;;;;;;5058426;28;20529;-69
2023/04/19 03:10:01;;;;;;;6.80;3.90;;;;;;;;;;5057817;28;20858;-71
2023/04/19 03:12:31;;;;;;;5.63;3.10;;;;;;;;;;5058585;28;20465;-70
2023/04/19 03:14:58;;;;;;;5.23;3.30;;;;;;;;;;5057375;28;20489;-70
2023/04/19 03:17:26;;;;;;;5.17;2.80;;;;;;;;;;5056162;28;20473;-70
2023/04/19 03:20:01;;;;;;;4.80;2.60;;;;;;;;;;5057084;28;20899;-69
2023/04/19 03:22:29;;;;;;;5.33;3.87;;;;;;;;;;5058344;28;20521;-70
2023/04/19 03:24:57;;;;;;;4.43;2.47;;;;;;;;;;5056226;28;20457;-69
2023/04/19 03:27:25;;;;;;;5.53;2.77;;;;;;;;;;5058568;28;20482;-70
2023/04/19 03:29:52;;;;;;;7.20;2.67;;;;;;;;;;5042734;28;20465;-71
2023/04/19 03:32:20;;;;;;;5.27;3.17;;;;;;;;;;5046820;28;20465;-69
2023/04/19 03:34:47;;;;;;;4.70;2.63;;;;;;;;;;5035397;28;20450;-69
2023/04/19 03:37:16;;;;;;;4.27;3.60;;;;;;;;;;5036149;28;20451;-70
2023/04/19 03:39:44;;;;;;;5.63;3.00;;;;;;;;;;5036238;28;21080;-71
2023/04/19 03:42:12;;;;;;;4.53;2.60;;;;;;;;;;5036427;28;20465;-70
2023/04/19 03:44:40;;;;;;;5.13;3.03;;;;;;;;;;5037101;28;20945;-70
2023/04/19 03:47:08;;;;;;;4.97;2.80;;;;;;;;;;5036393;28;20471;-70
2023/04/19 03:49:35;;;;;;;4.73;2.60;;;;;;;;;;5038404;28;20450;-70
2023/04/19 03:52:08;;;;;;;5.87;2.30;;;;;;;;;;5040097;28;20545;-70
2023/04/19 03:54:37;;;;;;;6.43;2.50;;;;;;;;;;5056794;28;20465;-69
2023/04/19 03:57:05;;;;;;;5.90;3.40;;;;;;;;;;5048726;28;20498;-70
2023/04/19 03:59:32;;;;;;;5.83;2.73;;;;;;;;;;5057432;28;20458;-68
2023/04/19 04:02:04;;;;;;;3.93;2.60;;;;;;;;;;5057886;28;20741;-70
2023/04/19 04:04:40;;;;;;;5.07;2.33;;;;;;;;;;5056653;28;20468;-70
2023/04/19 04:07:11;;;;;;;7.47;3.30;;;;;;;;;;5057108;28;20458;-70
2023/04/19 04:09:40;;;;;;;10.67;3.37;;;;;;;;;;5058180;28;20485;-71
2023/04/19 04:12:09;;;;;;;5.37;3.10;;;;;;;;;;5047025;28;20553;-71
2023/04/19 04:14:37;;;;;;;6.70;3.00;;;;;;;;;;5043644;28;20446;-69
2023/04/19 04:17:04;;;;;;;4.03;3.40;;;;;;;;;;5057232;28;20908;-68
2023/04/19 04:19:32;;;;;;;6.23;2.93;;;;;;;;;;5057429;28;20462;-70
2023/04/19 04:22:00;;;;;;;5.60;3.03;;;;;;;;;;5058821;28;20462;-70
2023/04/19 04:24:29;;;;;;;5.30;2.40;;;;;;;;;;5056232;28;20464;-69
2023/04/19 04:26:59;;;;;;;6.60;3.03;;;;;;;;;;5056213;28;20555;-70
2023/04/19 04:29:27;;;;;;;5.27;2.57;;;;;;;;;;5055457;28;20792;-70
2023/04/19 04:31:55;;;;;;;4.20;2.87;;;;;;;;;;5054905;28;20450;-69
2023/04/19 04:34:23;;;;;;;5.50;2.33;;;;;;;;;;5054695;28;20561;-71
2023/04/19 04:36:50;;;;;;;4.00;2.50;;;;;;;;;;5056976;28;20528;-70
2023/04/19 04:39:19;;;;;;;4.80;2.43;;;;;;;;;;5056364;28;20995;-70
2023/04/19 04:41:59;;;;;;;3.97;2.40;;;;;;;;;;5061648;28;20528;-69
2023/04/19 04:44:29;;;;;;;5.40;3.20;;;;;;;;;;5044564;28;20967;-69
2023/04/19 04:46:57;;;;;;;5.03;3.23;;;;;;;;;;5055515;28;20445;-71
2023/04/19 04:49:27;;;;;;;4.40;2.40;;;;;;;;;;5061641;28;20528;-71
2023/04/19 04:52:16;;;;;;;43.60;8.13;;;;;;;;;;5045082;28;20547;-70
2023/04/19 04:57:31;;;;;;;5.40;2.90;;;;;;;;;;5036644;28;20439;-69
2023/04/19 05:00:03;;;;;;;8.13;3.40;;;;;;;;;;5037250;28;20478;-71
2023/04/19 05:02:32;;;;;;;5.97;3.00;;;;;;;;;;5039700;28;20454;-69
2023/04/19 05:05:02;;;;;;;7.90;2.60;;;;;;;;;;5036734;28;20592;-69
2023/04/19 05:07:32;;;;;;;5.23;2.33;;;;;;;;;;5035444;28;20443;-70
2023/04/19 05:10:00;;;;;;;6.83;2.77;;;;;;;;;;5035434;28;21049;-70
2023/04/19 05:12:28;;;;;;;3.70;2.43;;;;;;;;;;5036242;28;20533;-70
2023/04/19 05:14:56;;;;;;;3.43;2.13;;;;;;;;;;5038839;28;20515;-70
2023/04/19 05:17:31;;;;;;;4.47;2.00;;;;;;;;;;5038696;28;20501;-71
2023/04/19 05:19:59;;;;;;;7.13;2.73;;;;;;;;;;5054931;28;20464;-70
2023/04/19 05:22:28;;;;;;;3.50;1.97;;;;;;;;;;5056476;28;20718;-70
2023/04/19 05:24:55;;;;;;;2.90;2.17;;;;;;;;;;5054221;28;20462;-69
2023/04/19 05:27:23;;;;;;;6.47;1.97;;;;;;;;;;5053951;28;21010;-72
2023/04/19 05:29:53;;;;;;;3.20;2.30;;;;;;;;;;5055009;28;20476;-70
2023/04/19 05:32:21;;;;;;;3.23;1.77;;;;;;;;;;5054387;28;20441;-70
2023/04/19 05:34:54;;;;;;;5.50;1.97;;;;;;;;;;5055691;28;20505;-69
2023/04/19 05:37:22;;;;;;;4.10;1.50;;;;;;;;;;5056851;28;20490;-70
2023/04/19 05:39:50;;;;;;;2.90;1.70;;;;;;;;;;5053888;28;20458;-70
2023/04/19 05:42:24;;;;;;;3.30;1.83;;;;;;;;;;5050349;28;20531;-70
2023/04/19 05:44:52;;;;;;;3.43;1.90;;;;;;;;;;5035977;28;20489;-70
2023/04/19 05:47:23;;;;;;;5.20;2.40;;;;;;;;;;5032657;28;20451;-71
2023/04/19 05:49:53;;;;;;;2.80;1.60;;;;;;;;;;5051941;28;20465;-71
2023/04/19 05:52:22;;;;;;;3.57;1.60;;;;;;;;;;5053506;28;20496;-70
2023/04/19 05:54:50;;;;;;;3.57;1.33;;;;;;;;;;5052510;28;20458;-69
2023/04/19 05:57:17;;;;;;;4.03;1.37;;;;;;;;;;5050482;28;20482;-70
2023/04/19 05:59:46;;;;;;;3.30;1.80;;;;;;;;;;5048322;28;20449;-71
2023/04/19 06:02:14;;;;;;;2.97;1.27;;;;;;;;;;5044556;28;20814;-69
2023/04/19 06:04:46;;;;;;;3.67;1.70;;;;;;;;;;5049341;28;20553;-70
2023/04/19 06:07:17;;;;;;;2.30;1.30;;;;;;;;;;5051651;28;20462;-69
2023/04/19 06:09:52;;;;;;;3.73;1.20;;;;;;;;;;5051465;28;20454;-70
2023/04/19 06:12:24;;;;;;;10.00;1.50;;;;;;;;;;5050541;28;20449;-69
2023/04/19 06:14:53;;;;;;;2.80;1.70;;;;;;;;;;5050302;28;20519;-71
2023/04/19 06:17:23;;;;;;;2.40;1.30;;;;;;;;;;5050606;28;20500;-70
2023/04/19 06:19:55;;;;;;;4.70;1.57;;;;;;;;;;5052610;28;20468;-70
2023/04/19 06:22:26;;;;;;;3.93;1.67;;;;;;;;;;5051422;28;20850;-70
2023/04/19 06:24:53;;;;;;;6.80;1.47;;;;;;;;;;5050744;28;20539;-69
2023/04/19 06:27:22;;;;;;;3.47;1.20;;;;;;;;;;5050286;28;20920;-69
2023/04/19 06:29:49;;;;;;;4.47;1.90;;;;;;;;;;5050876;28;20527;-70
2023/04/19 06:32:30;;;;;;;2.53;1.13;;;;;;;;;;5050596;28;21153;-72
2023/04/19 06:34:58;;;;;;;2.37;1.00;;;;;;;;;;5050359;28;20460;-70
2023/04/19 06:37:28;;;;;;;1.93;1.03;;;;;;;;;;5051515;28;20486;-69
2023/04/19 06:39:56;;;;;;;4.00;1.77;;;;;;;;;;5052263;28;20457;-71
2023/04/19 06:42:25;;;;;;;3.47;1.50;;;;;;;;;;5054353;28;20481;-70
2023/04/19 06:44:53;;;;;;;2.93;1.00;;;;;;;;;;5050017;28;20497;-71
2023/04/19 06:47:20;;;;;;;2.73;1.10;;;;;;;;;;5052734;28;20466;-72
2023/04/19 06:49:49;;;;;;;2.53;1.50;;;;;;;;;;5054282;28;20462;-70
2023/04/19 06:52:17;;;;;;;2.80;1.27;;;;;;;;;;5039560;28;20477;-71
2023/04/19 06:54:52;;;;;;;4.07;1.33;;;;;;;;;;5045056;28;20446;-70
2023/04/19 06:57:29;;;;;;;2.27;0.80;;;;;;;;;;5051188;28;20828;-70
2023/04/19 06:59:58;;;;;;;3.07;1.10;;;;;;;;;;5051182;28;20545;-70
2023/04/19 07:02:26;;;;;;;4.00;2.70;;;;;;;;;;5050717;28;20531;-71
2023/04/19 07:04:53;;;;;;;2.37;0.90;;;;;;;;;;5045777;28;20520;-70
2023/04/19 07:07:40;;;;;;;;;;;;;;;;;;;;;
2023/04/19 07:13:38;;;;;;;3.03;0.90;;;;;;;;;;5023791;28;20438;-69
2023/04/19 07:16:37;;;;;;;;;;;;;;;;;;;;;
2023/04/19 07:19:18;;;;;;;2.27;1.03;;;;;;;;;;5054113;28;20462;-70
2023/04/19 07:21:47;;;;;;;3.17;1.20;;;;;;;;;;5048622;28;20562;-71
2023/04/19 07:24:31;;;;;;;3.13;1.07;;;;;;;;;;5050235;28;20446;-70
2023/04/19 07:27:00;;;;;;;3.80;1.20;;;;;;;;;;5051301;28;20442;-70
2023/04/19 07:29:40;;;;;;;3.83;1.13;;;;;;;;;;5036750;28;20560;-70
2023/04/19 07:32:18;;;;;;;3.23;0.83;;;;;;;;;;5044440;28;20999;-70
2023/04/19 07:34:50;;;;;;;2.30;1.03;;;;;;;;;;5034239;28;20456;-70
2023/04/19 07:37:32;;;;;;;5.70;1.30;;;;;;;;;;5044900;28;21017;-71
2023/04/19 07:45:39;;;;;;;4.57;1.53;;;;;;;;;;5035686;28;20487;-80
2023/04/19 07:48:09;;;;;;;3.63;1.70;;;;;;;;;;5026037;28;20444;-79
2023/04/19 07:54:00;;;;;;;4.10;1.13;;;;;;;;;;5004849;28;20464;-79
2023/04/19 07:56:39;;;;;;;1.80;1.07;;;;;;;;;;5063991;28;20488;-80
2023/04/19 07:59:15;;;;;;;3.43;1.10;;;;;;;;;;5065640;28;20453;-78
2023/04/19 08:01:49;;;;;;;4.93;3.20;;;;;;;;;;5064255;28;20458;-79
2023/04/19 08:04:31;;;;;;;3.30;1.53;;;;;;;;;;5057926;28;20462;-78
2023/04/19 08:07:08;;;;;;;3.47;1.07;;;;;;;;;;5051687;28;20455;-81
2023/04/19 08:09:37;;;;;;;3.83;1.53;;;;;;;;;;5044474;28;20467;-81
2023/04/19 08:12:08;;;;;;;4.90;1.80;;;;;;;;;;5058282;28;20470;-79
2023/04/19 08:14:39;;;;;;;4.83;1.47;;;;;;;;;;5046141;28;20458;-79
2023/04/19 08:17:22;;;;;;;8.60;2.03;;;;;;;;;;5037839;28;20494;-80
2023/04/19 08:19:58;;;;;;;3.20;1.40;;;;;;;;;;5046119;28;20454;-80
2023/04/19 08:22:27;;;;;;;3.60;1.20;;;;;;;;;;5054265;28;20462;-78
2023/04/19 08:24:57;;;;;;;2.73;1.20;;;;;;;;;;5055392;28;20462;-78
2023/04/19 08:27:26;;;;;;;3.00;1.23;;;;;;;;;;5066134;28;20454;-79
2023/04/19 08:29:54;;;;;;;2.57;1.13;;;;;;;;;;5055547;28;20565;-78
2023/04/19 08:32:24;;;;;;;4.30;1.27;;;;;;;;;;5043020;28;20455;-79
2023/04/19 08:34:51;;;;;;;4.83;1.70;;;;;;;;;;5049653;28;20552;-78
2023/04/19 08:37:20;;;;;;;3.40;1.10;;;;;;;;;;5046414;28;20478;-80
2023/04/19 08:39:48;;;;;;;3.60;1.20;;;;;;;;;;5055441;28;20485;-81
2023/04/19 08:42:16;;;;;;;3.77;1.43;;;;;;;;;;5067396;28;20430;-80
2023/04/19 08:44:47;;;;;;;3.50;1.40;;;;;;;;;;5061044;28;20463;-79
2023/04/19 08:47:16;;;;;;;2.90;1.07;;;;;;;;;;5049885;28;20458;-79
2023/04/19 08:49:47;;;;;;;3.50;1.33;;;;;;;;;;5056443;28;20449;-78
2023/04/19 08:52:32;;;;;;;4.20;1.57;;;;;;;;;;5055491;28;20451;-81
2023/04/19 08:55:13;;;;;;;3.10;1.30;;;;;;;;;;5036198;28;20486;-80
2023/04/19 08:57:40;;;;;;;3.10;1.57;;;;;;;;;;5051620;28;20513;-79
2023/04/19 09:00:21;;;;;;;4.20;1.50;;;;;;;;;;5066845;28;20518;-79
2023/04/19 09:02:51;;;;;;;3.70;1.40;;;;;;;;;;5047992;28;20466;-80
2023/04/19 09:05:21;;;;;;;3.80;1.30;;;;;;;;;;5053556;28;20489;-80
2023/04/19 09:07:49;;;;;;;4.63;1.60;;;;;;;;;;5059980;28;20555;-80
2023/04/19 09:10:18;;;;;;;3.30;1.27;;;;;;;;;;5062870;28;20488;-80
2023/04/19 09:13:00;;;;;;;2.63;1.30;;;;;;;;;;5065876;28;20492;-79
2023/04/19 09:15:36;;;;;;;4.30;1.60;;;;;;;;;;5064306;28;20442;-80
2023/04/19 09:18:30;;;;;;;5.20;1.63;;;;;;;;;;5060675;28;20484;-81
2023/04/19 09:21:01;;;;;;;2.20;1.00;;;;;;;;;;5064377;28;20546;-79
2023/04/19 09:23:29;;;;;;;6.67;1.80;;;;;;;;;;5059276;28;20451;-79
2023/04/19 09:25:59;;;;;;;4.13;1.97;;;;;;;;;;5063108;28;20453;-78
2023/04/19 09:28:28;;;;;;;4.43;2.00;;;;;;;;;;5067364;28;20458;-79
2023/04/19 09:30:56;;;;;;;2.90;1.13;;;;;;;;;;5064426;28;20465;-81
2023/04/19 09:33:33;;;;;;;3.40;1.20;;;;;;;;;;5062127;28;20481;-80
2023/04/19 09:36:23;;;;;;;6.13;2.40;;;;;;;;;;5063962;28;20453;-80
2023/04/19 09:38:56;;;;;;;5.37;1.70;;;;;;;;;;5067344;28;20433;-79
2023/04/19 09:41:25;;;;;;;2.80;1.30;;;;;;;;;;5063474;28;21017;-81
2023/04/19 09:43:53;;;;;;;2.60;1.40;;;;;;;;;;5060828;28;20571;-79
2023/04/19 09:46:41;;;;;;;7.83;4.47;;;;;;;;;;5062731;28;20484;-80
2023/04/19 09:49:25;;;;;;;20.00;14.23;;;;;;;;;;5060130;28;20465;-81
2023/04/19 09:52:08;;;;;;;6.87;3.30;;;;;;;;;;5059823;28;20587;-79
2023/04/19 09:54:36;;;;;;;6.13;1.60;;;;;;;;;;5054540;28;20479;-81
2023/04/19 09:57:18;;;;;;;3.30;1.43;;;;;;;;;;5052658;28;21050;-81
2023/04/19 10:03:07;;;;;;;6.50;1.43;;;;;;;;;;5057988;28;20787;-83
2023/04/19 10:05:47;;;;;;;4.20;1.97;;;;;;;;;;5054762;28;20505;-84
2023/04/19 10:08:27;;;;;;;4.23;1.83;;;;;;;;;;5062539;28;20504;-84
2023/04/19 10:11:29;;;;;;;;;;;;;;;;;;;;;
2023/04/19 10:14:32;;;;;;;;;;;;;;;;;;;;;
2023/04/19 10:17:04;;;;;;;4.50;2.23;;;;;;;;;;5056389;28;20564;-82
2023/04/19 10:23:13;;;;;;;6.80;2.40;;;;;;;;;;5057832;28;20732;-83
2023/04/19 10:26:00;;;;;;;4.73;1.83;;;;;;;;;;5061386;28;20524;-82
2023/04/19 10:41:15;;;;;;;4.30;1.90;;;;;;;;;;5061735;28;20561;-82
2023/04/19 10:43:51;;;;;;;4.73;2.27;;;;;;;;;;5055705;28;20466;-82
2023/04/19 10:46:35;;;;;;;4.30;2.30;;;;;;;;;;5062941;28;20458;-83
2023/04/19 10:49:08;;;;;;;5.90;1.60;;;;;;;;;;5056633;28;20481;-81
2023/04/19 10:51:53;;;;;;;3.57;1.80;;;;;;;;;;5066951;28;20450;-80
2023/04/19 10:58:06;;;;;;;3.10;1.63;;;;;;;;;;5052795;28;20487;-84
2023/04/19 11:00:41;;;;;;;4.90;2.10;;;;;;;;;;5055737;28;20462;-79
2023/04/19 11:03:43;;;;;;;7.93;2.53;;;;;;;;;;5051232;28;20418;-81
2023/04/19 11:06:25;;;;;;;4.23;1.83;;;;;;;;;;5053817;28;20501;-81
2023/04/19 11:08:55;;;;;;;5.67;2.40;;;;;;;;;;5061719;28;20469;-83
2023/04/19 11:11:24;;;;;;;5.30;2.13;;;;;;;;;;5057621;28;20921;-81
2023/04/19 11:13:56;;;;;;;3.40;1.63;;;;;;;;;;5062951;28;20454;-82
2023/04/19 11:16:26;;;;;;;3.17;1.77;;;;;;;;;;5062220;28;20548;-82
2023/04/19 11:18:54;;;;;;;17.17;4.17;;;;;;;;;;5059077;28;20492;-82
2023/04/19 11:21:22;;;;;;;3.50;1.70;;;;;;;;;;5058862;28;20736;-81
2023/04/19 11:23:52;;;;;;;3.50;1.50;;;;;;;;;;5062753;28;20570;-81
2023/04/19 11:26:30;;;;;;;4.00;1.80;;;;;;;;;;5063069;28;20454;-81
2023/04/19 11:28:58;;;;;;;3.30;1.90;;;;;;;;;;5052399;28;20461;-82
2023/04/19 11:35:22;;;;;;;3.70;1.93;;;;;;;;;;5055609;28;21043;-82
2023/04/19 11:37:57;;;;;;;3.73;1.90;;;;;;;;;;5055463;28;20494;-78
2023/04/19 11:47:08;;;;;;;6.67;1.97;;;;;;;;;;5058718;28;20450;-82
2023/04/19 11:49:39;;;;;;;5.00;2.13;;;;;;;;;;5058396;28;20980;-83
2023/04/19 11:52:42;;;;;;;3.93;2.30;;;;;;;;;;5052484;28;20462;-79
2023/04/19 12:07:16;;;;;;;3.50;2.00;;;;;;;;;;5043431;28;20712;-83
2023/04/19 12:09:44;;;;;;;4.17;1.63;;;;;;;;;;5053751;28;20458;-80
2023/04/19 12:12:13;;;;;;;4.70;1.60;;;;;;;;;;5052866;28;20505;-83
2023/04/19 12:14:52;;;;;;;7.90;2.10;;;;;;;;;;5061721;28;20438;-80
2023/04/19 12:17:20;;;;;;;3.70;2.30;;;;;;;;;;5051323;28;20513;-81
2023/04/19 12:19:52;;;;;;;4.10;2.07;;;;;;;;;;5058140;28;20818;-83
2023/04/19 12:22:22;;;;;;;5.93;2.50;;;;;;;;;;5049215;28;20545;-86
2023/04/19 12:24:52;;;;;;;4.47;2.37;;;;;;;;;;5049525;28;20466;-80
2023/04/19 12:27:30;;;;;;;4.40;2.07;;;;;;;;;;5050222;28;20493;-81
2023/04/19 12:30:14;;;;;;;4.10;2.03;;;;;;;;;;5051101;28;20514;-81
2023/04/19 12:32:41;;;;;;;12.20;9.00;;;;;;;;;;5041435;28;20447;-84
2023/04/19 12:35:12;;;;;;;4.30;2.20;;;;;;;;;;5065699;28;20426;-83
2023/04/19 12:37:44;;;;;;;3.30;2.00;;;;;;;;;;5054911;28;21282;-81
2023/04/19 12:40:27;;;;;;;4.93;2.07;;;;;;;;;;5051918;28;20488;-84
2023/04/19 12:42:57;;;;;;;4.30;2.17;;;;;;;;;;5048795;28;20466;-81
2023/04/19 12:45:31;;;;;;;5.20;2.30;;;;;;;;;;5044897;28;20472;-83
2023/04/19 12:47:58;;;;;;;7.43;3.80;;;;;;;;;;5050594;28;20882;-83
2023/04/19 12:50:26;;;;;;;5.20;2.30;;;;;;;;;;5042073;28;21174;-83
2023/04/19 12:52:54;;;;;;;4.93;2.10;;;;;;;;;;5056606;28;20458;-79
2023/04/19 12:55:21;;;;;;;4.80;2.40;;;;;;;;;;5051897;28;20459;-81
2023/04/19 12:57:51;;;;;;;6.80;2.20;;;;;;;;;;5055241;28;20489;-81
2023/04/19 13:00:20;;;;;;;4.63;2.40;;;;;;;;;;5062187;28;20468;-83
2023/04/19 13:02:53;;;;;;;6.77;2.03;;;;;;;;;;5053288;28;20758;-83
2023/04/19 13:05:21;;;;;;;4.77;2.37;;;;;;;;;;5053369;28;21095;-82
2023/04/19 13:07:48;;;;;;;3.50;2.20;;;;;;;;;;5058491;28;20459;-79
2023/04/19 13:16:57;;;;;;;4.20;2.13;;;;;;;;;;5061876;28;20488;-84
2023/04/19 13:19:57;;;;;;;4.23;1.93;;;;;;;;;;5049849;28;20493;-85
2023/04/19 13:22:43;;;;;;;5.40;2.40;;;;;;;;;;5044270;28;20454;-82
2023/04/19 13:25:12;;;;;;;6.10;2.10;;;;;;;;;;5055576;28;20792;-82
2023/04/19 13:27:41;;;;;;;3.13;1.73;;;;;;;;;;5050749;28;20536;-83
2023/04/19 13:30:13;;;;;;;3.97;1.90;;;;;;;;;;5050435;28;20526;-82
2023/04/19 13:32:42;;;;;;;6.80;2.30;;;;;;;;;;5057787;28;20454;-82
2023/04/19 13:35:10;;;;;;;4.77;2.30;;;;;;;;;;5044734;28;20504;-80
2023/04/19 13:37:43;;;;;;;5.90;1.93;;;;;;;;;;5059019;28;20496;-81
2023/04/19 13:40:20;;;;;;;9.23;2.80;;;;;;;;;;5048654;28;20454;-81
2023/04/19 13:42:55;;;;;;;9.80;2.53;;;;;;;;;;5046401;28;20477;-83
2023/04/19 13:45:30;;;;;;;6.17;2.07;;;;;;;;;;5049533;28;20499;-82
2023/04/19 13:48:04;;;;;;;4.20;2.10;;;;;;;;;;5051496;28;20461;-81
2023/04/19 13:50:33;;;;;;;5.33;1.83;;;;;;;;;;5052002;28;20474;-82
2023/04/19 13:53:23;;;;;;;4.27;1.83;;;;;;;;;;5055457;28;20555;-82
2023/04/19 13:55:59;;;;;;;4.43;2.97;;;;;;;;;;5047728;28;20463;-80
2023/04/19 13:58:32;;;;;;;4.70;2.27;;;;;;;;;;5052953;28;20485;-80
2023/04/19 14:01:02;;;;;;;5.53;2.33;;;;;;;;;;5051843;28;20515;-80
2023/04/19 14:03:32;;;;;;;27.47;22.90;;;;;;;;;;5050858;28;20529;-80
2023/04/19 14:06:03;;;;;;;13.50;9.63;;;;;;;;;;5059083;28;21126;-81
2023/04/19 14:08:59;;;;;;;10.47;6.53;;;;;;;;;;5053633;28;20890;-82
2023/04/19 14:15:06;;;;;;;4.33;2.03;;;;;;;;;;5044428;28;20461;-80
2023/04/19 14:17:47;;;;;;;4.53;2.50;;;;;;;;;;5057475;28;20469;-80
2023/04/19 14:26:55;;;;;;;3.37;1.93;;;;;;;;;;4938648;28;20457;-81
2023/04/19 14:29:54;;;;;;;4.10;2.23;;;;;;;;;;5054859;28;20469;-82
2023/04/19 14:32:33;;;;;;;4.53;2.07;;;;;;;;;;5045909;28;20515;-79
2023/04/19 14:35:10;;;;;;;4.47;1.97;;;;;;;;;;5051910;28;20499;-80
2023/04/19 14:37:38;;;;;;;4.50;1.77;;;;;;;;;;5056596;28;20488;-82
2023/04/19 14:40:12;;;;;;;9.60;2.03;;;;;;;;;;5056859;28;21065;-83
2023/04/19 14:42:43;;;;;;;3.87;2.10;;;;;;;;;;5053378;28;20455;-83
2023/04/19 14:45:14;;;;;;;3.40;2.13;;;;;;;;;;5052199;28;20451;-78
2023/04/19 14:47:42;;;;;;;3.67;1.90;;;;;;;;;;5052178;28;20462;-79
2023/04/19 14:50:13;;;;;;;6.10;2.30;;;;;;;;;;5057467;28;20512;-82
2023/04/19 14:52:49;;;;;;;3.93;1.90;;;;;;;;;;5051025;28;20446;-84
2023/04/19 14:55:29;;;;;;;4.13;1.90;;;;;;;;;;5046906;28;20553;-80
2023/04/19 14:57:59;;;;;;;4.83;1.97;;;;;;;;;;5053392;28;20560;-80
2023/04/19 15:00:28;;;;;;;7.10;2.17;;;;;;;;;;5056472;28;20527;-81
2023/04/19 15:03:17;;;;;;;;;;;;;;;;;;;;;
2023/04/19 15:15:09;;;;;;;8.60;2.20;;;;;;;;;;5027070;28;20467;-80
2023/04/19 15:17:40;;;;;;;4.67;1.57;;;;;;;;;;5036324;28;20466;-80
2023/04/19 15:20:27;;;;;;;4.50;2.10;;;;;;;;;;5031787;28;20599;-83
2023/04/19 15:22:57;;;;;;;4.40;2.27;;;;;;;;;;5032223;28;20474;-81
2023/04/19 15:25:25;;;;;;;3.10;1.67;;;;;;;;;;5036623;28;21170;-80
2023/04/19 15:27:56;;;;;;;8.37;2.23;;;;;;;;;;5037825;28;21139;-79
2023/04/19 15:30:27;;;;;;;7.23;2.13;;;;;;;;;;5040667;28;20469;-79
2023/04/19 15:32:56;;;;;;;6.87;3.50;;;;;;;;;;5025879;28;20462;-80
2023/04/19 15:35:42;;;;;;;4.80;2.20;;;;;;;;;;5031157;28;20531;-78
2023/04/19 15:38:18;;;;;;;6.53;2.03;;;;;;;;;;5042388;28;20454;-81
2023/04/19 15:40:46;;;;;;;4.73;3.00;;;;;;;;;;5034105;28;20552;-81
2023/04/19 15:43:26;;;;;;;5.70;2.60;;;;;;;;;;5033115;28;20478;-84
2023/04/19 15:46:02;;;;;;;8.00;3.50;;;;;;;;;;5032415;28;20450;-79
2023/04/19 15:48:30;;;;;;;8.93;3.03;;;;;;;;;;5039311;28;20561;-81
2023/04/19 15:51:00;;;;;;;5.37;3.30;;;;;;;;;;5032163;28;20944;-81
2023/04/19 15:53:30;;;;;;;7.07;3.00;;;;;;;;;;5046965;28;20446;-80
2023/04/19 15:55:57;;;;;;;3.87;2.27;;;;;;;;;;5020291;28;20530;-80
2023/04/19 15:58:25;;;;;;;4.33;2.20;;;;;;;;;;5030655;28;20463;-80
2023/04/19 16:01:15;;;;;;;5.47;1.80;;;;;;;;;;5035793;28;20518;-76
2023/04/19 16:03:44;;;;;;;4.70;2.27;;;;;;;;;;5035152;28;20467;-78
2023/04/19 16:06:13;;;;;;;4.13;2.00;;;;;;;;;;5025512;28;20782;-79
2023/04/19 16:08:44;;;;;;;4.33;2.23;;;;;;;;;;5026290;28;20468;-82
2023/04/19 16:11:12;;;;;;;8.93;2.37;;;;;;;;;;5041049;28;20834;-83
2023/04/19 16:13:47;;;;;;;8.90;1.97;;;;;;;;;;5056910;28;20496;-78
2023/04/19 16:16:20;;;;;;;3.83;2.10;;;;;;;;;;5062147;28;20726;-78
2023/04/19 16:18:56;;;;;;;5.80;2.07;;;;;;;;;;5068595;28;20477;-79
2023/04/19 16:21:32;;;;;;;7.93;2.57;;;;;;;;;;5061189;28;20466;-80
2023/04/19 16:24:02;;;;;;;4.33;2.23;;;;;;;;;;5050883;28;20957;-83
2023/04/19 16:26:32;;;;;;;5.37;1.80;;;;;;;;;;5053983;28;20449;-79
2023/04/19 16:29:09;;;;;;;8.90;3.43;;;;;;;;;;5068406;28;20434;-82
2023/04/19 16:31:37;;;;;;;8.13;3.87;;;;;;;;;;5051608;28;20470;-80
2023/04/19 16:34:16;;;;;;;7.17;3.30;;;;;;;;;;5056488;28;20501;-79
2023/04/19 16:36:51;;;;;;;3.10;1.60;;;;;;;;;;5045463;28;21073;-81
2023/04/19 16:39:33;;;;;;;2.63;1.70;;;;;;;;;;5061162;28;20482;-79
2023/04/19 16:42:01;;;;;;;5.27;2.00;;;;;;;;;;5067256;28;20445;-80
2023/04/19 16:44:29;;;;;;;14.27;2.67;;;;;;;;;;5063294;28;20499;-79
2023/04/19 16:46:57;;;;;;;3.53;2.17;;;;;;;;;;5043887;28;20503;-80